createdAt,value
2017-10-20T00:00:13.557Z,110.73
2017-10-20T00:02:39.945Z,50.87
2017-10-20T00:05:06.353Z,73.47
2017-10-20T00:07:32.764Z,77.63
2017-10-20T00:09:59.906Z,59.20
2017-10-20T00:12:27.039Z,176.27
2017-10-20T00:14:53.455Z,237.43
2017-10-20T00:17:19.906Z,148.73
2017-10-20T00:19:46.334Z,117.30
2017-10-20T00:22:12.747Z,49.20
2017-10-20T00:24:39.166Z,88.03
2017-10-20T00:27:05.595Z,53.37
2017-10-20T00:29:31.993Z,122.37
2017-10-20T00:31:58.398Z,58.83
2017-10-20T00:34:24.823Z,167.07
2017-10-20T00:36:51.250Z,98.53
2017-10-20T00:39:17.673Z,92.03
2017-10-20T00:41:44.075Z,124.93
2017-10-20T00:44:10.519Z,205.87
2017-10-20T00:46:37.003Z,188.83
2017-10-20T00:49:03.405Z,115.37
2017-10-20T00:51:29.816Z,111.20
2017-10-20T00:53:56.244Z,76.10
2017-10-20T00:56:22.680Z,162.10
2017-10-20T00:58:49.119Z,129.37
2017-10-20T01:01:15.605Z,136.47
2017-10-20T01:03:42.799Z,195.70
2017-10-20T01:06:09.224Z,88.60
2017-10-20T01:08:35.640Z,160.37
2017-10-20T01:11:02.792Z,101.80
2017-10-20T01:13:29.921Z,134.03
2017-10-20T01:15:56.378Z,99.33
2017-10-20T01:18:23.625Z,189.03
2017-10-20T01:20:50.820Z,220.53
2017-10-20T01:23:17.277Z,135.73
2017-10-20T01:25:43.756Z,219.97
2017-10-20T01:28:10.203Z,146.23
2017-10-20T01:30:36.652Z,113.63
2017-10-20T01:33:03.116Z,147.93
2017-10-20T01:35:29.556Z,121.60
2017-10-20T01:37:57.518Z,106.27
2017-10-20T01:40:23.969Z,141.33
2017-10-20T01:42:51.152Z,182.47
2017-10-20T01:45:17.595Z,119.20
2017-10-20T01:47:44.054Z,98.07
2017-10-20T01:50:10.509Z,134.67
2017-10-20T01:52:38.425Z,93.83
2017-10-20T01:55:04.861Z,113.00
2017-10-20T01:57:31.306Z,139.53
2017-10-20T01:59:57.761Z,121.87
2017-10-20T02:02:24.307Z,115.47
2017-10-20T02:04:52.237Z,102.93
2017-10-20T02:07:18.643Z,121.80
2017-10-20T02:09:45.799Z,176.77
2017-10-20T02:12:12.249Z,80.10
2017-10-20T02:14:38.695Z,90.63
2017-10-20T02:17:05.122Z,109.67
2017-10-20T02:19:31.523Z,117.70
2017-10-20T02:21:58.002Z,98.73
2017-10-20T02:24:24.469Z,96.00
2017-10-20T02:26:50.907Z,150.77
2017-10-20T02:29:17.333Z,100.43
2017-10-20T02:31:43.769Z,296.43
2017-10-20T02:34:10.948Z,196.17
2017-10-20T02:36:37.422Z,242.03
2017-10-20T02:39:03.854Z,271.80
2017-10-20T02:41:30.320Z,159.33
2017-10-20T02:43:57.520Z,122.03
2017-10-20T02:46:23.974Z,168.40
2017-10-20T02:48:50.395Z,203.83
2017-10-20T02:51:16.833Z,154.77
2017-10-20T02:53:43.268Z,257.97
2017-10-20T02:56:09.838Z,287.17
2017-10-20T02:58:36.286Z,136.83
2017-10-20T03:01:03.460Z,127.57
2017-10-20T03:03:29.888Z,175.30
2017-10-20T03:05:56.312Z,194.93
2017-10-20T03:08:22.924Z,199.67
2017-10-20T03:10:49.343Z,113.97
2017-10-20T03:13:15.779Z,250.10
2017-10-20T03:15:42.218Z,133.97
2017-10-20T03:18:08.842Z,188.27
2017-10-20T03:20:35.235Z,224.20
2017-10-20T03:23:01.656Z,197.17
2017-10-20T03:25:28.109Z,182.07
2017-10-20T03:27:54.531Z,148.20
2017-10-20T03:30:20.929Z,244.77
2017-10-20T03:32:48.080Z,98.73
2017-10-20T03:35:15.244Z,186.57
2017-10-20T03:37:42.454Z,200.03
2017-10-20T03:40:10.367Z,109.03
2017-10-20T03:42:36.773Z,227.13
2017-10-20T03:45:03.951Z,234.90
2017-10-20T03:47:31.108Z,178.13
2017-10-20T03:49:57.504Z,209.47
2017-10-20T03:52:23.925Z,177.33
2017-10-20T03:54:50.312Z,131.97
2017-10-20T03:57:16.749Z,193.37
2017-10-20T03:59:43.162Z,206.90
2017-10-20T04:02:09.567Z,300.93
2017-10-20T04:04:37.494Z,137.70
2017-10-20T04:07:03.938Z,302.23
2017-10-20T04:09:30.401Z,168.07
2017-10-20T04:11:58.392Z,233.60
2017-10-20T04:14:24.858Z,175.90
2017-10-20T04:16:51.362Z,177.57
2017-10-20T04:19:17.837Z,256.50
2017-10-20T04:21:44.252Z,192.67
2017-10-20T04:24:10.674Z,210.43
2017-10-20T04:26:37.145Z,191.73
2017-10-20T04:29:03.606Z,345.70
2017-10-20T04:31:30.782Z,262.60
2017-10-20T04:33:57.217Z,194.37
2017-10-20T04:36:23.668Z,206.43
2017-10-20T04:38:50.120Z,247.73
2017-10-20T04:41:16.555Z,246.00
2017-10-20T04:43:43.006Z,198.73
2017-10-20T04:46:09.391Z,179.50
2017-10-20T04:48:35.820Z,290.57
2017-10-20T04:51:02.245Z,214.73
2017-10-20T04:53:29.395Z,443.73
2017-10-20T04:55:55.846Z,343.77
2017-10-20T04:58:22.286Z,186.50
2017-10-20T05:00:48.701Z,350.50
2017-10-20T05:03:15.105Z,479.07
2017-10-20T05:05:42.295Z,361.57
2017-10-20T05:08:08.743Z,322.17
2017-10-20T05:10:35.154Z,210.37
2017-10-20T05:13:01.622Z,375.77
2017-10-20T05:15:28.066Z,262.67
2017-10-20T05:17:55.210Z,235.30
2017-10-20T05:20:21.627Z,144.67
2017-10-20T05:22:48.045Z,381.57
2017-10-20T05:25:14.531Z,311.17
2017-10-20T05:27:41.854Z,283.40
2017-10-20T05:30:09.760Z,330.30
2017-10-20T05:32:36.926Z,165.97
2017-10-20T05:35:03.447Z,417.13
2017-10-20T05:37:30.024Z,261.87
2017-10-20T05:39:56.434Z,372.33
2017-10-20T05:42:22.854Z,239.47
2017-10-20T05:44:50.073Z,165.60
2017-10-20T05:47:18.001Z,237.53
2017-10-20T05:49:44.476Z,243.47
2017-10-20T05:52:10.932Z,171.90
2017-10-20T05:54:38.116Z,172.73
2017-10-20T05:57:05.352Z,157.30
2017-10-20T05:59:31.796Z,240.80
2017-10-20T06:01:58.232Z,182.20
2017-10-20T06:04:24.684Z,290.03
2017-10-20T06:06:51.118Z,201.97
2017-10-20T06:09:17.530Z,182.43
2017-10-20T06:11:44.030Z,286.87
2017-10-20T06:14:10.458Z,336.23
2017-10-20T06:16:38.366Z,226.13
2017-10-20T06:19:04.766Z,249.73
2017-10-20T06:21:31.947Z,228.80
2017-10-20T06:23:58.374Z,224.50
2017-10-20T06:26:24.794Z,191.50
2017-10-20T06:28:52.024Z,283.87
2017-10-20T06:31:32.562Z,211.30
2017-10-20T06:33:59.806Z,154.07
2017-10-20T06:36:26.303Z,205.00
2017-10-20T06:38:52.749Z,211.43
2017-10-20T06:41:19.233Z,111.27
2017-10-20T06:43:45.654Z,248.63
2017-10-20T06:46:12.054Z,191.27
2017-10-20T06:48:38.535Z,140.40
2017-10-20T06:51:04.978Z,185.33
2017-10-20T06:53:31.436Z,186.73
2017-10-20T06:55:58.633Z,164.87
2017-10-20T06:58:25.097Z,202.40
2017-10-20T07:00:51.630Z,161.67
2017-10-20T07:03:18.108Z,114.70
2017-10-20T07:05:44.593Z,130.97
2017-10-20T07:08:11.103Z,123.30
2017-10-20T07:10:37.578Z,145.47
2017-10-20T07:13:04.027Z,161.40
2017-10-20T07:15:30.532Z,161.60
2017-10-20T07:17:57.740Z,215.83
2017-10-20T07:20:36.027Z,184.40
2017-10-20T07:23:02.523Z,132.47
2017-10-20T07:25:28.964Z,112.30
2017-10-20T07:27:56.088Z,144.33
2017-10-20T07:30:22.573Z,165.33
2017-10-20T07:32:49.108Z,112.90
2017-10-20T07:35:15.524Z,179.10
2017-10-20T07:37:42.750Z,178.10
2017-10-20T07:40:10.017Z,156.10
2017-10-20T07:42:37.355Z,246.17
2017-10-20T07:45:04.064Z,239.37
2017-10-20T07:47:30.461Z,297.20
2017-10-20T07:49:57.621Z,223.60
2017-10-20T07:52:24.058Z,149.50
2017-10-20T07:54:50.459Z,261.77
2017-10-20T07:57:16.888Z,152.07
2017-10-20T07:59:43.373Z,172.20
2017-10-20T08:02:09.786Z,117.30
2017-10-20T08:04:36.969Z,166.13
2017-10-20T08:07:03.380Z,136.03
2017-10-20T08:09:29.796Z,131.43
2017-10-20T08:11:56.947Z,127.30
2017-10-20T08:14:23.444Z,182.80
2017-10-20T08:16:49.916Z,130.50
2017-10-20T08:19:16.350Z,132.33
2017-10-20T08:21:42.778Z,136.87
2017-10-20T08:24:09.905Z,104.07
2017-10-20T08:26:37.062Z,122.63
2017-10-20T08:29:03.521Z,114.37
2017-10-20T08:31:30.001Z,126.00
2017-10-20T08:33:56.456Z,147.30
2017-10-20T08:36:23.613Z,100.57
2017-10-20T08:38:50.869Z,113.07
2017-10-20T08:41:17.343Z,92.37
2017-10-20T08:43:43.798Z,92.90
2017-10-20T08:46:10.395Z,111.17
2017-10-20T08:48:36.830Z,88.90
2017-10-20T08:51:03.265Z,95.00
2017-10-20T08:53:29.776Z,87.70
2017-10-20T08:55:56.284Z,87.17
2017-10-20T08:58:22.805Z,92.23
2017-10-20T09:00:49.246Z,88.90
2017-10-20T09:03:15.629Z,88.23
2017-10-20T09:05:42.937Z,84.53
2017-10-20T09:08:10.127Z,81.63
2017-10-20T09:10:37.243Z,95.83
2017-10-20T09:13:04.395Z,83.47
2017-10-20T09:15:30.780Z,83.63
2017-10-20T09:17:57.354Z,81.23
2017-10-20T09:20:23.778Z,93.57
2017-10-20T09:22:50.169Z,90.20
2017-10-20T09:25:16.605Z,82.20
2017-10-20T09:27:43.107Z,83.63
2017-10-20T09:30:09.652Z,85.80
2017-10-20T09:32:36.118Z,86.33
2017-10-20T09:35:02.634Z,90.57
2017-10-20T09:37:29.058Z,92.80
2017-10-20T09:39:56.221Z,98.50
2017-10-20T09:42:22.615Z,81.00
2017-10-20T09:44:49.111Z,89.60
2017-10-20T09:47:15.558Z,76.73
2017-10-20T09:49:41.964Z,84.13
2017-10-20T09:52:08.475Z,85.93
2017-10-20T09:54:35.654Z,85.67
2017-10-20T09:57:02.072Z,71.60
2017-10-20T09:59:28.468Z,76.77
2017-10-20T10:01:54.936Z,83.03
2017-10-20T10:04:21.379Z,72.90
2017-10-20T10:06:47.824Z,71.53
2017-10-20T10:09:14.269Z,81.37
2017-10-20T10:11:40.727Z,77.63
2017-10-20T10:14:07.165Z,82.30
2017-10-20T10:16:33.581Z,78.90
2017-10-20T10:19:00.004Z,89.07
2017-10-20T10:21:26.412Z,83.23
2017-10-20T10:23:52.815Z,84.77
2017-10-20T10:26:19.945Z,83.73
2017-10-20T10:28:46.348Z,82.00
2017-10-20T10:31:12.778Z,84.37
2017-10-20T10:33:39.166Z,92.23
2017-10-20T10:36:06.630Z,99.53
2017-10-20T10:38:33.761Z,97.90
2017-10-20T10:41:00.147Z,111.27
2017-10-20T10:43:26.560Z,99.27
2017-10-20T10:45:53.001Z,93.70
2017-10-20T10:48:19.420Z,95.97
2017-10-20T10:50:45.855Z,93.80
2017-10-20T10:53:12.268Z,92.90
2017-10-20T10:55:39.405Z,89.17
2017-10-20T10:58:05.821Z,85.90
2017-10-20T11:00:32.235Z,96.07
2017-10-20T11:02:58.693Z,89.70
2017-10-20T11:05:37.301Z,85.50
2017-10-20T11:08:16.010Z,87.63
2017-10-20T11:10:54.776Z,82.77
2017-10-20T11:13:21.983Z,97.13
2017-10-20T11:15:48.448Z,90.43
2017-10-20T11:18:15.608Z,92.90
2017-10-20T11:20:42.755Z,80.67
2017-10-20T11:23:09.166Z,89.70
2017-10-20T11:25:35.598Z,90.13
2017-10-20T11:28:02.018Z,98.60
2017-10-20T11:30:28.632Z,91.10
2017-10-20T11:32:55.086Z,88.03
2017-10-20T11:35:21.523Z,89.37
2017-10-20T11:37:48.052Z,97.40
2017-10-20T11:40:14.481Z,89.00
2017-10-20T11:42:40.945Z,88.03
2017-10-20T11:45:07.385Z,86.60
2017-10-20T11:47:33.850Z,90.67
2017-10-20T11:50:00.274Z,87.03
2017-10-20T11:52:27.465Z,84.73
2017-10-20T11:54:54.138Z,81.27
2017-10-20T11:57:20.539Z,90.63
2017-10-20T11:59:46.961Z,82.03
2017-10-20T12:02:13.770Z,76.80
2017-10-20T12:04:40.934Z,85.20
2017-10-20T12:07:07.337Z,78.10
2017-10-20T12:09:33.826Z,84.63
2017-10-20T12:12:00.343Z,82.73
2017-10-20T12:14:26.797Z,80.10
2017-10-20T12:16:53.323Z,87.70
2017-10-20T12:19:19.800Z,73.37
2017-10-20T12:21:46.205Z,76.00
2017-10-20T12:24:12.586Z,75.70
2017-10-20T12:26:39.737Z,74.93
2017-10-20T12:29:06.861Z,81.33
2017-10-20T12:31:33.265Z,77.37
2017-10-20T12:33:59.690Z,66.60
2017-10-20T12:36:26.103Z,65.43
2017-10-20T12:38:52.527Z,69.63
2017-10-20T12:41:19.655Z,64.00
2017-10-20T12:43:46.045Z,66.87
2017-10-20T12:46:12.423Z,69.30
2017-10-20T12:48:38.833Z,67.30
2017-10-20T12:51:05.240Z,65.97
2017-10-20T12:53:31.638Z,63.60
2017-10-20T12:55:58.779Z,67.70
2017-10-20T12:58:25.910Z,62.53
2017-10-20T13:00:52.329Z,62.50
2017-10-20T13:03:18.739Z,58.47
2017-10-20T13:05:45.197Z,66.53
2017-10-20T13:08:11.654Z,59.30
2017-10-20T13:10:38.830Z,47.63
2017-10-20T13:13:05.252Z,48.70
2017-10-20T13:15:32.457Z,50.10
2017-10-20T13:17:58.950Z,47.00
2017-10-20T13:20:25.409Z,47.57
2017-10-20T13:22:51.792Z,51.70
2017-10-20T13:25:18.939Z,48.97
2017-10-20T13:27:46.405Z,45.03
2017-10-20T13:30:13.575Z,46.57
2017-10-20T13:32:40.006Z,47.50
2017-10-20T13:35:06.397Z,40.47
2017-10-20T13:37:32.792Z,54.23
2017-10-20T13:39:59.203Z,42.50
2017-10-20T13:42:25.638Z,46.73
2017-10-20T13:44:52.024Z,47.53
2017-10-20T13:47:18.428Z,56.03
2017-10-20T13:49:44.789Z,46.27
2017-10-20T13:52:11.164Z,53.23
2017-10-20T13:54:37.576Z,45.50
2017-10-20T13:57:04.762Z,53.30
2017-10-20T13:59:31.144Z,42.50
2017-10-20T14:01:58.292Z,50.23
2017-10-20T14:04:24.692Z,43.80
2017-10-20T14:06:51.081Z,48.10
2017-10-20T14:09:18.241Z,44.33
2017-10-20T14:11:44.718Z,51.30
2017-10-20T14:14:11.111Z,52.63
2017-10-20T14:16:37.527Z,48.17
2017-10-20T14:19:03.954Z,55.70
2017-10-20T14:21:31.196Z,49.60
2017-10-20T14:23:58.340Z,54.23
2017-10-20T14:26:38.468Z,44.53
2017-10-20T14:29:17.873Z,46.30
2017-10-20T14:31:57.306Z,54.30
2017-10-20T14:34:23.705Z,47.77
2017-10-20T14:36:50.840Z,50.00
2017-10-20T14:39:17.248Z,46.10
2017-10-20T14:41:43.740Z,45.53
2017-10-20T14:44:10.911Z,49.97
2017-10-20T14:46:37.325Z,49.40
2017-10-20T14:49:04.469Z,48.83
2017-10-20T14:51:31.607Z,55.83
2017-10-20T14:53:58.037Z,47.53
2017-10-20T14:56:24.437Z,53.70
2017-10-20T14:58:50.830Z,46.70
2017-10-20T15:01:17.979Z,46.90
2017-10-20T15:03:44.430Z,51.37
2017-10-20T15:06:10.857Z,251.20
2017-10-20T15:08:37.244Z,58.87
2017-10-20T15:11:03.650Z,44.00
2017-10-20T15:13:30.081Z,50.23
2017-10-20T15:15:56.477Z,52.77
2017-10-20T15:18:23.672Z,52.03
2017-10-20T15:20:50.050Z,49.43
2017-10-20T15:23:17.168Z,58.87
2017-10-20T15:25:43.648Z,57.63
2017-10-20T15:28:10.064Z,64.33
2017-10-20T15:30:37.237Z,54.90
2017-10-20T15:33:03.681Z,58.10
2017-10-20T15:35:30.079Z,59.30
2017-10-20T15:37:56.476Z,67.30
2017-10-20T15:40:22.861Z,59.93
2017-10-20T15:42:49.266Z,62.27
2017-10-20T15:45:15.696Z,69.77
2017-10-20T15:47:42.830Z,64.20
2017-10-20T15:50:09.259Z,64.60
2017-10-20T15:52:35.715Z,66.00
2017-10-20T15:55:02.112Z,75.90
2017-10-20T15:57:28.495Z,73.90
2017-10-20T15:59:55.647Z,66.07
2017-10-20T16:02:22.787Z,69.70
2017-10-20T16:04:49.957Z,66.80
2017-10-20T16:07:16.398Z,67.27
2017-10-20T16:09:42.805Z,71.50
2017-10-20T16:12:09.962Z,83.37
2017-10-20T16:14:37.124Z,83.57
2017-10-20T16:17:03.512Z,74.60
2017-10-20T16:19:29.982Z,79.90
2017-10-20T16:21:57.145Z,72.63
2017-10-20T16:24:23.517Z,80.70
2017-10-20T16:26:49.908Z,77.13
2017-10-20T16:29:17.165Z,78.23
2017-10-20T16:31:43.532Z,80.43
2017-10-20T16:34:09.929Z,132.30
2017-10-20T16:36:36.298Z,119.63
2017-10-20T16:39:02.769Z,92.40
2017-10-20T16:41:29.225Z,87.67
2017-10-20T16:43:55.692Z,79.43
2017-10-20T16:46:22.086Z,85.37
2017-10-20T16:48:48.480Z,91.53
2017-10-20T16:51:14.860Z,90.20
2017-10-20T16:53:41.262Z,88.20
2017-10-20T16:56:08.404Z,97.90
2017-10-20T16:58:35.598Z,99.73
2017-10-20T17:01:02.021Z,118.87
2017-10-20T17:03:28.467Z,116.53
2017-10-20T17:05:54.914Z,98.70
2017-10-20T17:08:21.792Z,104.43
2017-10-20T17:10:48.159Z,116.83
2017-10-20T17:13:14.608Z,140.87
2017-10-20T17:15:40.997Z,110.17
2017-10-20T17:18:08.155Z,98.90
2017-10-20T17:20:35.340Z,98.83
2017-10-20T17:23:01.809Z,100.33
2017-10-20T17:25:28.224Z,88.00
2017-10-20T17:27:54.658Z,103.83
2017-10-20T17:30:21.078Z,101.97
2017-10-20T17:32:47.496Z,83.20
2017-10-20T17:35:13.925Z,85.13
2017-10-20T17:37:40.332Z,84.20
2017-10-20T17:40:06.745Z,103.17
2017-10-20T17:42:33.167Z,85.43
2017-10-20T17:44:59.634Z,90.73
2017-10-20T17:47:26.780Z,87.37
2017-10-20T17:49:53.946Z,103.27
2017-10-20T17:52:21.083Z,83.13
2017-10-20T17:54:48.232Z,85.37
2017-10-20T17:57:15.472Z,125.77
2017-10-20T17:59:42.656Z,105.93
2017-10-20T18:02:09.041Z,118.87
2017-10-20T18:04:35.472Z,144.13
2017-10-20T18:07:01.885Z,151.17
2017-10-20T18:09:28.269Z,105.43
2017-10-20T18:11:56.417Z,279.37
2017-10-20T18:14:22.841Z,343.57
2017-10-20T18:16:49.208Z,336.77
2017-10-20T18:19:15.616Z,296.50
2017-10-20T18:21:42.035Z,270.20
2017-10-20T18:24:09.944Z,101.87
2017-10-20T18:26:37.124Z,131.27
2017-10-20T18:29:04.290Z,143.97
2017-10-20T18:31:30.719Z,132.67
2017-10-20T18:33:57.177Z,113.07
2017-10-20T18:36:23.616Z,134.20
2017-10-20T18:38:50.059Z,141.13
2017-10-20T18:41:16.488Z,138.43
2017-10-20T18:43:42.893Z,118.47
2017-10-20T18:46:09.264Z,155.33
2017-10-20T18:48:36.476Z,101.23
2017-10-20T18:51:02.954Z,103.13
2017-10-20T18:53:29.396Z,120.57
2017-10-20T18:55:55.813Z,105.20
2017-10-20T18:58:22.973Z,119.37
2017-10-20T19:00:50.119Z,139.50
2017-10-20T19:03:17.273Z,205.50
2017-10-20T19:05:44.419Z,216.87
2017-10-20T19:08:11.594Z,152.83
2017-10-20T19:10:38.004Z,141.43
2017-10-20T19:13:05.178Z,149.80
2017-10-20T19:15:31.573Z,199.83
2017-10-20T19:17:58.789Z,162.83
2017-10-20T19:20:25.227Z,118.27
2017-10-20T19:22:52.557Z,148.20
2017-10-20T19:25:18.981Z,426.17
2017-10-20T19:27:45.435Z,364.27
2017-10-20T19:30:11.848Z,402.93
2017-10-20T19:32:38.246Z,401.90
2017-10-20T19:35:04.657Z,104.13
2017-10-20T19:37:31.043Z,194.70
2017-10-20T19:39:57.423Z,502.23
2017-10-20T19:42:23.825Z,301.37
2017-10-20T19:44:50.208Z,316.80
2017-10-20T19:47:17.452Z,208.87
2017-10-20T19:49:44.598Z,366.30
2017-10-20T19:52:11.767Z,323.40
2017-10-20T19:54:38.149Z,106.90
2017-10-20T19:57:04.558Z,312.77
2017-10-20T19:59:30.986Z,264.50
2017-10-20T20:01:57.385Z,132.47
2017-10-20T20:04:23.812Z,148.23
2017-10-20T20:06:50.965Z,216.67
2017-10-20T20:09:17.449Z,211.50
2017-10-20T20:11:43.897Z,99.23
2017-10-20T20:14:10.289Z,315.87
2017-10-20T20:16:36.698Z,325.90
2017-10-20T20:19:04.609Z,92.60
2017-10-20T20:21:31.041Z,423.97
2017-10-20T20:23:57.477Z,125.47
2017-10-20T20:26:23.908Z,282.43
2017-10-20T20:28:50.375Z,164.03
2017-10-20T20:31:18.791Z,287.47
2017-10-20T20:33:45.978Z,134.37
2017-10-20T20:36:12.486Z,210.83
2017-10-20T20:38:38.933Z,146.13
2017-10-20T20:41:05.359Z,174.53
2017-10-20T20:43:31.803Z,235.87
2017-10-20T20:45:58.241Z,143.73
2017-10-20T20:48:24.655Z,195.97
2017-10-20T20:50:51.828Z,208.97
2017-10-20T20:53:18.211Z,176.60
2017-10-20T20:55:44.601Z,156.10
2017-10-20T20:58:11.026Z,130.30
2017-10-20T21:00:37.443Z,130.20
2017-10-20T21:03:03.839Z,192.20
2017-10-20T21:05:31.004Z,146.23
2017-10-20T21:07:58.107Z,137.13
2017-10-20T21:10:24.536Z,104.40
2017-10-20T21:12:50.936Z,74.13
2017-10-20T21:15:17.412Z,142.10
2017-10-20T21:17:43.882Z,136.10
2017-10-20T21:20:10.289Z,147.17
2017-10-20T21:22:36.702Z,209.67
2017-10-20T21:25:03.135Z,112.57
2017-10-20T21:27:29.515Z,147.27
2017-10-20T21:29:56.668Z,78.20
2017-10-20T21:32:23.830Z,160.70
2017-10-20T21:34:50.952Z,165.33
2017-10-20T21:37:17.357Z,114.50
2017-10-20T21:39:43.781Z,148.73
2017-10-20T21:42:10.195Z,146.63
2017-10-20T21:44:36.676Z,135.43
2017-10-20T21:47:03.073Z,78.90
2017-10-20T21:49:29.528Z,63.67
2017-10-20T21:51:56.098Z,103.80
2017-10-20T21:54:23.233Z,99.23
2017-10-20T21:56:49.865Z,97.93
2017-10-20T21:59:16.278Z,110.37
2017-10-20T22:01:44.318Z,174.63
2017-10-20T22:04:10.725Z,115.60
2017-10-20T22:06:37.874Z,96.60
2017-10-20T22:09:04.311Z,81.27
2017-10-20T22:11:31.472Z,83.23
2017-10-20T22:13:57.901Z,127.33
2017-10-20T22:16:25.041Z,99.83
2017-10-20T22:18:52.205Z,175.10
2017-10-20T22:21:18.613Z,86.73
2017-10-20T22:23:45.787Z,131.70
2017-10-20T22:26:12.199Z,161.30
2017-10-20T22:28:38.638Z,88.00
2017-10-20T22:31:06.287Z,152.97
2017-10-20T22:33:32.746Z,160.13
2017-10-20T22:35:59.167Z,181.20
2017-10-20T22:38:25.580Z,131.50
2017-10-20T22:40:52.058Z,160.23
2017-10-20T22:43:18.497Z,142.03
2017-10-20T22:45:44.902Z,130.37
2017-10-20T22:48:12.060Z,107.03
2017-10-20T22:50:38.473Z,121.80
2017-10-20T22:53:05.676Z,99.10
2017-10-20T22:55:32.083Z,122.13
2017-10-20T22:57:59.265Z,83.63
2017-10-20T23:00:25.664Z,112.23
2017-10-20T23:02:52.073Z,105.87
2017-10-20T23:05:19.217Z,119.50
2017-10-20T23:07:46.378Z,101.70
2017-10-20T23:10:12.798Z,121.87
2017-10-20T23:12:39.996Z,91.90
2017-10-20T23:15:06.411Z,80.53
2017-10-20T23:17:32.855Z,133.03
2017-10-20T23:19:59.262Z,89.57
2017-10-20T23:22:26.429Z,101.97
2017-10-20T23:24:52.908Z,106.63
2017-10-20T23:27:19.290Z,69.20
2017-10-20T23:29:45.702Z,88.03
2017-10-20T23:32:12.906Z,105.33
2017-10-20T23:34:39.320Z,106.37
2017-10-20T23:37:05.717Z,85.30
2017-10-20T23:39:32.130Z,162.60
2017-10-20T23:42:00.020Z,102.60
2017-10-20T23:44:26.428Z,138.03
2017-10-20T23:46:52.819Z,175.97
2017-10-20T23:49:19.212Z,143.10
2017-10-20T23:51:45.613Z,112.73
2017-10-20T23:54:12.100Z,305.87
2017-10-20T23:56:38.493Z,190.07
2017-10-20T23:59:05.849Z,120.63
